AAL8500 KHXD-KMCD
Flight info
| Callsign | AAL8500 |
|---|---|
| Flight time | N/A |
| Altitude | 36000 |
| Route | JROSS HVQ J85 DJB PLN |
| Aircraft | B738/M-SDE2E3FGHIRWXY/LB1 |
Departure
| Time | 2026-04-30 13:43 |
|---|---|
| Airport | Hilton Head Airport (KHXD) |
Arrival
| Time | N/A |
|---|---|
| Airport | Mackinac Island Airport (KMCD) |
| Time | Latitude | Longitude | Altitude | Speed | Heading |
|---|---|---|---|---|---|
| 2026-04-30 13:19 | 32.22633 | -80.69823 | 15 ft | 0 kts | 321° |
| 2026-04-30 13:35 | 32.22629 | -80.69820 | 14 ft | 2 kts | 321° |
| 2026-04-30 13:36 | 32.22604 | -80.69801 | 14 ft | 2 kts | 0° |
| 2026-04-30 13:36 | 32.22590 | -80.69806 | 15 ft | 2 kts | 39° |
| 2026-04-30 13:36 | 32.22581 | -80.69825 | 14 ft | 1 kts | 78° |
| 2026-04-30 13:37 | 32.22581 | -80.69827 | 14 ft | 0 kts | 77° |
| 2026-04-30 13:39 | 32.22581 | -80.69826 | 14 ft | 1 kts | 76° |
| 2026-04-30 13:39 | 32.22657 | -80.69729 | 14 ft | 15 kts | 30° |
| 2026-04-30 13:40 | 32.22746 | -80.69677 | 14 ft | 13 kts | 25° |
| 2026-04-30 13:40 | 32.22828 | -80.69631 | 14 ft | 12 kts | 25° |
| 2026-04-30 13:40 | 32.22906 | -80.69586 | 14 ft | 12 kts | 26° |
| 2026-04-30 13:40 | 32.22979 | -80.69543 | 14 ft | 11 kts | 26° |
| 2026-04-30 13:41 | 32.23047 | -80.69502 | 14 ft | 10 kts | 26° |
| 2026-04-30 13:41 | 32.23082 | -80.69466 | 14 ft | 3 kts | 78° |
| 2026-04-30 13:41 | 32.23063 | -80.69408 | 14 ft | 11 kts | 140° |
| 2026-04-30 13:41 | 32.23038 | -80.69406 | 14 ft | 0 kts | 203° |
| 2026-04-30 13:42 | 32.22033 | -80.69983 | 25 ft | 151 kts | 206° |
| 2026-04-30 13:43 | 32.21085 | -80.70504 | 743 ft | 152 kts | 206° |
| 2026-04-30 13:43 | 32.20100 | -80.70995 | 1366 ft | 166 kts | 204° |
| 2026-04-30 13:43 | 32.18968 | -80.71471 | 1911 ft | 178 kts | 202° |
| 2026-04-30 13:43 | 32.17906 | -80.72266 | 2367 ft | 188 kts | 233° |
| 2026-04-30 13:44 | 32.17415 | -80.73766 | 2877 ft | 198 kts | 271° |
| 2026-04-30 13:44 | 32.17750 | -80.75388 | 3417 ft | 213 kts | 292° |
| 2026-04-30 13:44 | 32.18342 | -80.77029 | 4064 ft | 225 kts | 295° |
| 2026-04-30 13:44 | 32.19378 | -80.78456 | 4762 ft | 240 kts | 326° |
| 2026-04-30 13:45 | 32.22888 | -80.78445 | 6121 ft | 281 kts | 14° |
| 2026-04-30 13:45 | 32.24749 | -80.77676 | 6865 ft | 290 kts | 14° |
| 2026-04-30 13:45 | 32.26670 | -80.76942 | 7700 ft | 294 kts | 11° |
| 2026-04-30 13:46 | 32.28633 | -80.76273 | 8536 ft | 297 kts | 10° |
| 2026-04-30 13:46 | 32.30656 | -80.75621 | 9298 ft | 304 kts | 9° |
| 2026-04-30 13:46 | 32.32695 | -80.74979 | 10071 ft | 308 kts | 9° |
| 2026-04-30 13:46 | 32.34803 | -80.74318 | 10758 ft | 317 kts | 8° |
| 2026-04-30 13:47 | 32.36984 | -80.73634 | 11285 ft | 331 kts | 8° |
| 2026-04-30 13:47 | 32.39240 | -80.72920 | 11796 ft | 344 kts | 9° |
| 2026-04-30 13:47 | 32.41582 | -80.72178 | 12254 ft | 359 kts | 9° |
| 2026-04-30 13:47 | 32.44044 | -80.71398 | 12672 ft | 374 kts | 9° |
| 2026-04-30 13:48 | 32.46666 | -80.70567 | 13351 ft | 381 kts | 9° |
| 2026-04-30 13:48 | 32.49223 | -80.69751 | 14087 ft | 384 kts | 9° |
| 2026-04-30 13:48 | 32.51828 | -80.68919 | 14804 ft | 389 kts | 9° |
| 2026-04-30 13:48 | 32.54416 | -80.68090 | 15547 ft | 391 kts | 9° |
| 2026-04-30 13:49 | 32.57050 | -80.67249 | 16228 ft | 395 kts | 9° |
| 2026-04-30 13:49 | 32.59736 | -80.66393 | 16850 ft | 400 kts | 9° |
| 2026-04-30 13:49 | 32.62407 | -80.65541 | 17553 ft | 402 kts | 9° |
| 2026-04-30 13:49 | 32.65145 | -80.64666 | 18188 ft | 406 kts | 9° |
| 2026-04-30 13:50 | 32.67888 | -80.63847 | 18770 ft | 408 kts | 6° |
| 2026-04-30 13:50 | 32.73483 | -80.63222 | 19935 ft | 404 kts | 350° |
| 2026-04-30 13:50 | 32.76275 | -80.63550 | 20514 ft | 404 kts | 345° |
| 2026-04-30 13:51 | 32.79044 | -80.64050 | 21171 ft | 402 kts | 343° |
| 2026-04-30 13:51 | 32.81806 | -80.64606 | 21694 ft | 406 kts | 343° |
| 2026-04-30 13:51 | 32.84595 | -80.65176 | 22275 ft | 408 kts | 343° |
| 2026-04-30 13:51 | 32.87414 | -80.65745 | 22752 ft | 412 kts | 343° |
| 2026-04-30 13:52 | 32.90250 | -80.66309 | 23259 ft | 415 kts | 343° |
| 2026-04-30 13:52 | 32.93108 | -80.66867 | 23786 ft | 417 kts | 343° |
| 2026-04-30 13:52 | 32.95969 | -80.67419 | 24243 ft | 419 kts | 342° |
| 2026-04-30 13:52 | 32.98835 | -80.67971 | 24689 ft | 421 kts | 342° |
| 2026-04-30 13:53 | 33.01726 | -80.68527 | 25070 ft | 425 kts | 342° |
| 2026-04-30 13:53 | 33.04670 | -80.69092 | 25506 ft | 427 kts | 342° |
| 2026-04-30 13:53 | 33.07578 | -80.69647 | 26055 ft | 425 kts | 342° |
| 2026-04-30 13:53 | 33.10510 | -80.70204 | 26388 ft | 430 kts | 342° |
| 2026-04-30 13:54 | 33.13464 | -80.70769 | 26848 ft | 431 kts | 342° |
| 2026-04-30 13:54 | 33.16445 | -80.71338 | 27229 ft | 433 kts | 342° |
| 2026-04-30 13:54 | 33.19405 | -80.71903 | 27592 ft | 435 kts | 341° |
| 2026-04-30 13:54 | 33.22411 | -80.72478 | 28007 ft | 436 kts | 341° |
| 2026-04-30 13:55 | 33.25414 | -80.73052 | 28374 ft | 438 kts | 341° |
| 2026-04-30 13:55 | 33.28401 | -80.73621 | 28823 ft | 438 kts | 341° |
| 2026-04-30 13:55 | 33.31427 | -80.74199 | 29236 ft | 438 kts | 341° |
| 2026-04-30 13:55 | 33.34465 | -80.74783 | 29518 ft | 442 kts | 340° |
| 2026-04-30 13:56 | 33.37495 | -80.75365 | 29901 ft | 443 kts | 341° |
| 2026-04-30 13:56 | 33.40488 | -80.75931 | 30681 ft | 433 kts | 340° |
| 2026-04-30 13:56 | 33.43427 | -80.76480 | 31531 ft | 422 kts | 340° |
| 2026-04-30 13:56 | 33.46285 | -80.77012 | 32283 ft | 413 kts | 339° |
| 2026-04-30 13:57 | 33.49121 | -80.77555 | 32497 ft | 415 kts | 339° |
| 2026-04-30 13:57 | 33.51985 | -80.78115 | 32795 ft | 416 kts | 339° |
| 2026-04-30 13:57 | 33.54854 | -80.78673 | 33214 ft | 414 kts | 339° |
| 2026-04-30 13:57 | 33.57698 | -80.79227 | 33564 ft | 413 kts | 338° |
| 2026-04-30 13:58 | 33.60549 | -80.79778 | 34125 ft | 408 kts | 339° |
| 2026-04-30 13:58 | 33.66033 | -80.80823 | 35360 ft | 395 kts | 338° |
| 2026-04-30 13:58 | 33.68731 | -80.81342 | 35824 ft | 391 kts | 338° |
| 2026-04-30 13:59 | 33.71416 | -80.81866 | 35913 ft | 392 kts | 338° |
| 2026-04-30 13:59 | 33.76827 | -80.82934 | 35911 ft | 394 kts | 338° |
| 2026-04-30 14:00 | 33.82204 | -80.83976 | 35912 ft | 390 kts | 338° |
| 2026-04-30 14:00 | 33.90282 | -80.85558 | 35914 ft | 392 kts | 338° |
| 2026-04-30 14:01 | 33.95660 | -80.86602 | 35913 ft | 391 kts | 338° |
| 2026-04-30 14:01 | 34.01039 | -80.87652 | 35915 ft | 394 kts | 337° |
| 2026-04-30 14:02 | 34.06463 | -80.88716 | 35917 ft | 396 kts | 337° |
| 2026-04-30 14:02 | 34.11883 | -80.89764 | 35935 ft | 397 kts | 337° |
| 2026-04-30 14:03 | 34.14630 | -80.90301 | 36084 ft | 400 kts | 338° |
| 2026-04-30 14:03 | 34.17374 | -80.90837 | 36410 ft | 398 kts | 337° |
| 2026-04-30 14:03 | 34.20109 | -80.91374 | 36840 ft | 394 kts | 337° |
| 2026-04-30 14:03 | 34.22792 | -80.91894 | 37405 ft | 387 kts | 337° |
| 2026-04-30 14:04 | 34.25402 | -80.92406 | 37728 ft | 385 kts | 337° |
| 2026-04-30 14:04 | 34.28077 | -80.92927 | 37931 ft | 385 kts | 337° |
| 2026-04-30 14:04 | 34.33378 | -80.93976 | 37928 ft | 387 kts | 337° |
| 2026-04-30 14:05 | 34.38702 | -80.95026 | 37927 ft | 387 kts | 338° |
| 2026-04-30 14:05 | 34.44010 | -80.96069 | 37926 ft | 386 kts | 336° |
| 2026-04-30 14:06 | 34.51946 | -80.97628 | 37926 ft | 386 kts | 337° |
| 2026-04-30 14:07 | 34.59954 | -80.99217 | 37927 ft | 390 kts | 337° |
| 2026-04-30 14:08 | 34.68020 | -81.00807 | 37925 ft | 388 kts | 337° |
| 2026-04-30 14:08 | 34.76017 | -81.02387 | 37927 ft | 391 kts | 337° |
| 2026-04-30 14:09 | 34.81398 | -81.03468 | 37925 ft | 392 kts | 336° |
| 2026-04-30 14:10 | 34.89494 | -81.05078 | 37930 ft | 394 kts | 337° |
| 2026-04-30 14:10 | 34.94908 | -81.06159 | 37928 ft | 395 kts | 337° |
| 2026-04-30 14:11 | 35.00347 | -81.07238 | 37934 ft | 394 kts | 337° |
| 2026-04-30 14:11 | 35.05769 | -81.08326 | 37936 ft | 397 kts | 337° |
| 2026-04-30 14:12 | 35.11231 | -81.09412 | 37937 ft | 396 kts | 337° |
| 2026-04-30 14:12 | 35.16669 | -81.10495 | 37937 ft | 396 kts | 338° |
| 2026-04-30 14:13 | 35.22142 | -81.11594 | 37933 ft | 399 kts | 337° |
| 2026-04-30 14:13 | 35.27634 | -81.12708 | 37936 ft | 402 kts | 338° |
| 2026-04-30 14:14 | 35.33151 | -81.13814 | 37940 ft | 399 kts | 338° |
| 2026-04-30 14:14 | 35.38632 | -81.14900 | 37938 ft | 401 kts | 338° |
| 2026-04-30 14:15 | 35.44149 | -81.16020 | 37939 ft | 405 kts | 338° |
| 2026-04-30 14:15 | 35.49699 | -81.17141 | 37936 ft | 405 kts | 338° |
| 2026-04-30 14:16 | 35.55243 | -81.18259 | 37939 ft | 404 kts | 339° |
| 2026-04-30 14:16 | 35.60826 | -81.19389 | 37939 ft | 405 kts | 339° |
| 2026-04-30 14:17 | 35.66397 | -81.20525 | 37942 ft | 408 kts | 339° |
| 2026-04-30 14:17 | 35.72002 | -81.21665 | 37940 ft | 409 kts | 339° |
| 2026-04-30 14:18 | 35.77618 | -81.22810 | 37940 ft | 410 kts | 339° |
| 2026-04-30 14:18 | 35.86087 | -81.24532 | 37939 ft | 411 kts | 340° |
| 2026-04-30 14:19 | 35.94541 | -81.26254 | 37946 ft | 413 kts | 339° |
| 2026-04-30 14:20 | 36.00259 | -81.27427 | 37954 ft | 417 kts | 339° |
| 2026-04-30 14:20 | 36.08782 | -81.29170 | 37963 ft | 413 kts | 340° |
| 2026-04-30 14:21 | 36.14480 | -81.30337 | 37968 ft | 415 kts | 340° |
| 2026-04-30 14:22 | 36.23032 | -81.32099 | 37968 ft | 416 kts | 340° |
| 2026-04-30 14:22 | 36.31580 | -81.33861 | 37981 ft | 417 kts | 340° |
| 2026-04-30 14:23 | 36.43041 | -81.36227 | 37982 ft | 417 kts | 340° |
| 2026-04-30 14:24 | 36.51673 | -81.38019 | 37975 ft | 420 kts | 340° |
| 2026-04-30 14:25 | 36.63082 | -81.40382 | 37971 ft | 418 kts | 340° |
| 2026-04-30 14:26 | 36.71717 | -81.42189 | 37966 ft | 422 kts | 340° |
| 2026-04-30 14:27 | 36.80354 | -81.43984 | 37973 ft | 420 kts | 340° |
| 2026-04-30 14:27 | 36.86142 | -81.45194 | 37988 ft | 420 kts | 340° |
| 2026-04-30 14:28 | 36.94787 | -81.47009 | 37981 ft | 421 kts | 340° |
| 2026-04-30 14:28 | 37.00568 | -81.48225 | 37969 ft | 422 kts | 341° |
| 2026-04-30 14:29 | 37.12161 | -81.50669 | 37956 ft | 422 kts | 341° |
| 2026-04-30 14:31 | 37.26633 | -81.53723 | 37961 ft | 423 kts | 341° |
| 2026-04-30 14:31 | 37.35349 | -81.55572 | 37982 ft | 426 kts | 341° |
| 2026-04-30 14:32 | 37.44065 | -81.57416 | 38000 ft | 423 kts | 341° |
| 2026-04-30 14:33 | 37.49914 | -81.58665 | 37994 ft | 428 kts | 341° |
| 2026-04-30 14:33 | 37.58659 | -81.60523 | 37986 ft | 423 kts | 341° |
| 2026-04-30 14:34 | 37.64451 | -81.61759 | 37990 ft | 425 kts | 341° |
| 2026-04-30 14:34 | 37.70265 | -81.63004 | 37983 ft | 425 kts | 341° |
| 2026-04-30 14:35 | 37.79081 | -81.64894 | 37986 ft | 426 kts | 341° |
| 2026-04-30 14:36 | 37.84908 | -81.66145 | 37995 ft | 424 kts | 341° |
| 2026-04-30 14:36 | 37.90750 | -81.67400 | 37999 ft | 426 kts | 341° |
| 2026-04-30 14:37 | 37.96553 | -81.68649 | 37997 ft | 424 kts | 341° |
| 2026-04-30 14:37 | 38.02411 | -81.69919 | 38009 ft | 429 kts | 341° |
| 2026-04-30 14:38 | 38.08282 | -81.71188 | 38014 ft | 425 kts | 341° |
| 2026-04-30 14:38 | 38.14099 | -81.72446 | 38014 ft | 427 kts | 341° |
| 2026-04-30 14:39 | 38.19944 | -81.73714 | 38018 ft | 428 kts | 341° |
| 2026-04-30 14:39 | 38.25837 | -81.74994 | 38023 ft | 428 kts | 341° |
| 2026-04-30 14:40 | 38.34631 | -81.76880 | 38023 ft | 430 kts | 343° |
| 2026-04-30 14:40 | 38.40666 | -81.77583 | 38025 ft | 437 kts | 348° |
| 2026-04-30 14:41 | 38.46742 | -81.77935 | 38020 ft | 440 kts | 349° |
| 2026-04-30 14:41 | 38.52829 | -81.78264 | 38026 ft | 439 kts | 348° |
| 2026-04-30 14:42 | 38.58963 | -81.78627 | 38018 ft | 440 kts | 348° |
| 2026-04-30 14:42 | 38.65048 | -81.79013 | 38014 ft | 440 kts | 348° |
| 2026-04-30 14:43 | 38.71178 | -81.79417 | 38010 ft | 440 kts | 348° |
| 2026-04-30 14:43 | 38.77270 | -81.79823 | 38014 ft | 440 kts | 348° |
| 2026-04-30 14:44 | 38.83405 | -81.80234 | 38012 ft | 441 kts | 348° |
| 2026-04-30 14:44 | 38.89528 | -81.80650 | 38015 ft | 442 kts | 348° |
| 2026-04-30 14:45 | 38.95691 | -81.81064 | 38017 ft | 442 kts | 348° |
| 2026-04-30 14:45 | 39.01823 | -81.81482 | 38019 ft | 444 kts | 349° |
| 2026-04-30 14:46 | 39.07990 | -81.81900 | 38015 ft | 443 kts | 349° |
| 2026-04-30 14:46 | 39.14131 | -81.82317 | 38017 ft | 444 kts | 349° |
| 2026-04-30 14:47 | 39.20322 | -81.82738 | 38010 ft | 443 kts | 349° |
| 2026-04-30 14:47 | 39.26458 | -81.83157 | 38013 ft | 444 kts | 349° |
| 2026-04-30 14:48 | 39.32628 | -81.83578 | 38008 ft | 444 kts | 349° |
| 2026-04-30 14:48 | 39.38822 | -81.84003 | 38007 ft | 445 kts | 349° |
| 2026-04-30 14:49 | 39.44967 | -81.84425 | 38010 ft | 445 kts | 349° |
| 2026-04-30 14:49 | 39.51180 | -81.84850 | 38005 ft | 444 kts | 349° |
| 2026-04-30 14:50 | 39.60450 | -81.85489 | 38001 ft | 445 kts | 349° |
| 2026-04-30 14:51 | 39.69697 | -81.86129 | 38001 ft | 446 kts | 349° |
| 2026-04-30 14:52 | 39.78892 | -81.87337 | 38007 ft | 440 kts | 344° |
| 2026-04-30 14:52 | 39.87941 | -81.89113 | 38008 ft | 439 kts | 344° |
| 2026-04-30 14:53 | 39.97061 | -81.90824 | 38013 ft | 441 kts | 345° |
| 2026-04-30 14:54 | 40.09157 | -81.93014 | 38012 ft | 441 kts | 345° |
| 2026-04-30 14:55 | 40.18315 | -81.94663 | 38004 ft | 441 kts | 345° |
| 2026-04-30 14:56 | 40.30462 | -81.96854 | 38004 ft | 444 kts | 345° |
| 2026-04-30 14:57 | 40.39643 | -81.98514 | 38002 ft | 445 kts | 345° |
| 2026-04-30 14:58 | 40.51862 | -82.00729 | 38004 ft | 443 kts | 345° |
| 2026-04-30 14:58 | 40.61012 | -82.02395 | 38005 ft | 443 kts | 345° |
| 2026-04-30 15:00 | 40.76335 | -82.05196 | 37993 ft | 448 kts | 346° |
| 2026-04-30 15:01 | 40.88621 | -82.07446 | 37999 ft | 447 kts | 346° |
| 2026-04-30 15:01 | 40.97868 | -82.09152 | 38004 ft | 446 kts | 346° |
| 2026-04-30 15:02 | 41.03959 | -82.10274 | 38001 ft | 446 kts | 346° |
| 2026-04-30 15:03 | 41.19348 | -82.13121 | 38009 ft | 447 kts | 346° |
| 2026-04-30 15:04 | 41.34681 | -82.16174 | 38022 ft | 443 kts | 341° |
| 2026-04-30 15:06 | 41.48884 | -82.23171 | 38017 ft | 434 kts | 332° |
| 2026-04-30 15:07 | 41.60033 | -82.29356 | 38022 ft | 434 kts | 332° |
| 2026-04-30 15:08 | 41.71205 | -82.35500 | 38006 ft | 435 kts | 332° |
| 2026-04-30 15:09 | 41.85177 | -82.43195 | 38005 ft | 435 kts | 333° |
| 2026-04-30 15:10 | 41.96333 | -82.49365 | 38001 ft | 434 kts | 333° |
| 2026-04-30 15:11 | 42.13090 | -82.58676 | 38000 ft | 437 kts | 333° |
| 2026-04-30 15:13 | 42.27128 | -82.66515 | 38007 ft | 438 kts | 332° |
| 2026-04-30 15:14 | 42.46787 | -82.77558 | 38005 ft | 439 kts | 332° |
| 2026-04-30 15:17 | 42.72098 | -82.91886 | 38001 ft | 440 kts | 333° |
| 2026-04-30 15:19 | 42.94673 | -83.04774 | 37994 ft | 442 kts | 333° |